Time;durP1;ratioP1;P1;durP2;ratioP2;P2;SDS_P1;SDS_P2;PMS_P1;PMS_P2;Temp;Humidity;BMP_temperature;BMP_pressure;BME280_temperature;BME280_humidity;BME280_pressure;Samples;Min_cycle;Max_cycle;Signal;HPM_P1;HPM_P2
2022/03/06 00:01:48;;;;;;;16.50;9.43;;;;;;;;;;5053009;28;20560;-64
2022/03/06 00:04:14;;;;;;;15.57;8.93;;;;;;;;;;5053047;28;20477;-61
2022/03/06 00:06:40;;;;;;;16.30;9.20;;;;;;;;;;5053080;28;20403;-61
2022/03/06 00:09:06;;;;;;;17.57;9.40;;;;;;;;;;5053198;28;20418;-61
2022/03/06 00:11:32;;;;;;;15.77;9.70;;;;;;;;;;5053112;28;20407;-60
2022/03/06 00:13:58;;;;;;;15.60;9.30;;;;;;;;;;5053058;28;20419;-61
2022/03/06 00:16:24;;;;;;;19.53;8.87;;;;;;;;;;5053001;28;20399;-61
2022/03/06 00:18:50;;;;;;;13.00;8.60;;;;;;;;;;5053166;28;20442;-62
2022/03/06 00:21:16;;;;;;;16.40;9.83;;;;;;;;;;5052991;28;20433;-61
2022/03/06 00:23:42;;;;;;;16.97;10.40;;;;;;;;;;5052805;28;20967;-60
2022/03/06 00:26:08;;;;;;;17.93;8.20;;;;;;;;;;5051576;28;20410;-61
2022/03/06 00:28:34;;;;;;;15.10;8.63;;;;;;;;;;5052984;28;20419;-60
2022/03/06 00:31:00;;;;;;;17.83;9.37;;;;;;;;;;5052921;28;20411;-60
2022/03/06 00:33:27;;;;;;;14.40;8.20;;;;;;;;;;5053030;28;20415;-61
2022/03/06 00:35:53;;;;;;;16.80;10.23;;;;;;;;;;5055080;28;20395;-61
2022/03/06 00:38:19;;;;;;;16.90;9.27;;;;;;;;;;5057049;28;20411;-63
2022/03/06 00:40:45;;;;;;;17.07;9.13;;;;;;;;;;5056882;28;20429;-65
2022/03/06 00:43:11;;;;;;;15.00;8.27;;;;;;;;;;5055490;28;20475;-62
2022/03/06 00:45:37;;;;;;;12.30;8.70;;;;;;;;;;5056789;28;20414;-61
2022/03/06 00:48:04;;;;;;;14.67;8.63;;;;;;;;;;5056777;28;20537;-61
2022/03/06 00:50:30;;;;;;;16.73;8.50;;;;;;;;;;5056866;28;20418;-61
2022/03/06 00:52:57;;;;;;;16.33;8.37;;;;;;;;;;5056718;28;20435;-61
2022/03/06 00:55:23;;;;;;;16.23;9.60;;;;;;;;;;5056564;28;20784;-60
2022/03/06 00:57:49;;;;;;;18.30;9.70;;;;;;;;;;5056797;28;20898;-60
2022/03/06 01:00:15;;;;;;;17.70;9.37;;;;;;;;;;5056512;28;20759;-61
2022/03/06 01:02:41;;;;;;;17.13;9.03;;;;;;;;;;5056274;28;20938;-61
2022/03/06 01:05:07;;;;;;;15.30;9.00;;;;;;;;;;5056400;28;20414;-61
2022/03/06 01:07:33;;;;;;;17.50;9.47;;;;;;;;;;5056403;28;20464;-61
2022/03/06 01:09:59;;;;;;;18.47;9.70;;;;;;;;;;5056289;28;20433;-61
2022/03/06 01:12:25;;;;;;;20.40;10.33;;;;;;;;;;5056179;28;20571;-62
2022/03/06 01:14:51;;;;;;;18.63;9.53;;;;;;;;;;5056170;28;20422;-60
2022/03/06 01:17:18;;;;;;;17.60;9.47;;;;;;;;;;5055934;28;20509;-62
2022/03/06 01:19:44;;;;;;;23.00;11.30;;;;;;;;;;5055875;28;20425;-60
2022/03/06 01:22:10;;;;;;;16.00;9.03;;;;;;;;;;5056210;28;20451;-61
2022/03/06 01:24:36;;;;;;;19.40;10.13;;;;;;;;;;5055512;28;20480;-60
2022/03/06 01:27:02;;;;;;;17.80;9.90;;;;;;;;;;5056164;28;20404;-61
2022/03/06 01:29:28;;;;;;;20.67;9.50;;;;;;;;;;5055937;28;20425;-60
2022/03/06 01:31:54;;;;;;;16.10;10.03;;;;;;;;;;5056130;28;20418;-72
2022/03/06 01:34:20;;;;;;;13.90;8.60;;;;;;;;;;5055906;28;20747;-66
2022/03/06 01:36:46;;;;;;;17.00;8.60;;;;;;;;;;5055873;28;20751;-69
2022/03/06 01:39:12;;;;;;;14.07;8.97;;;;;;;;;;5055868;28;20423;-66
2022/03/06 01:41:38;;;;;;;16.27;9.70;;;;;;;;;;5055875;28;20415;-68
2022/03/06 01:44:05;;;;;;;16.30;9.53;;;;;;;;;;5055475;28;20481;-64
2022/03/06 01:46:31;;;;;;;16.80;9.53;;;;;;;;;;5055095;28;20875;-68
2022/03/06 01:48:57;;;;;;;18.73;9.10;;;;;;;;;;5055528;28;20470;-71
2022/03/06 01:51:23;;;;;;;19.87;9.03;;;;;;;;;;5055685;28;20426;-69
2022/03/06 01:53:49;;;;;;;17.33;8.80;;;;;;;;;;5055427;28;20435;-61
2022/03/06 01:56:15;;;;;;;16.37;9.60;;;;;;;;;;5055632;28;20494;-69
2022/03/06 01:58:42;;;;;;;17.20;9.40;;;;;;;;;;5055607;28;20454;-63
2022/03/06 02:01:08;;;;;;;16.30;8.20;;;;;;;;;;5055469;28;20920;-71
2022/03/06 02:03:35;;;;;;;15.23;9.00;;;;;;;;;;5054396;28;20478;-73
2022/03/06 02:06:01;;;;;;;15.60;9.20;;;;;;;;;;5055334;28;20420;-75
2022/03/06 02:08:27;;;;;;;24.63;9.90;;;;;;;;;;5055308;28;20418;-64
2022/03/06 02:10:54;;;;;;;18.17;9.30;;;;;;;;;;5055326;28;20909;-67
2022/03/06 02:13:20;;;;;;;15.40;9.57;;;;;;;;;;5055077;28;20425;-69
2022/03/06 02:15:46;;;;;;;18.60;8.87;;;;;;;;;;5055017;28;20416;-65
2022/03/06 02:18:12;;;;;;;18.30;10.47;;;;;;;;;;5055148;28;20405;-69
2022/03/06 02:20:38;;;;;;;17.53;9.23;;;;;;;;;;5055177;28;20458;-71
2022/03/06 02:23:04;;;;;;;16.87;9.17;;;;;;;;;;5054878;28;20484;-60
2022/03/06 02:25:33;;;;;;;18.57;9.83;;;;;;;;;;5054883;28;20481;-68
2022/03/06 02:28:00;;;;;;;16.67;10.13;;;;;;;;;;5054927;28;20435;-64
2022/03/06 02:30:30;;;;;;;16.00;10.00;;;;;;;;;;5055059;28;20456;-62
2022/03/06 02:32:58;;;;;;;15.20;9.17;;;;;;;;;;5053678;28;20399;-61
2022/03/06 02:35:24;;;;;;;18.90;9.70;;;;;;;;;;5054783;28;20442;-61
2022/03/06 02:37:50;;;;;;;13.70;9.03;;;;;;;;;;5054625;28;20800;-60
2022/03/06 02:40:18;;;;;;;15.80;8.93;;;;;;;;;;5054670;28;20413;-61
2022/03/06 02:42:45;;;;;;;14.80;9.30;;;;;;;;;;5054498;28;20451;-61
2022/03/06 02:45:12;;;;;;;18.30;9.30;;;;;;;;;;5054656;28;20411;-60
2022/03/06 02:47:39;;;;;;;17.63;8.63;;;;;;;;;;5054521;28;20401;-60
2022/03/06 02:50:06;;;;;;;20.07;10.13;;;;;;;;;;5054522;28;20424;-63
2022/03/06 02:52:33;;;;;;;16.77;9.10;;;;;;;;;;5054415;28;20452;-61
2022/03/06 02:54:59;;;;;;;16.90;9.30;;;;;;;;;;5054214;28;20429;-61
2022/03/06 02:57:25;;;;;;;16.63;9.37;;;;;;;;;;5054396;28;20395;-60
2022/03/06 02:59:51;;;;;;;17.30;8.73;;;;;;;;;;5053110;28;20410;-60
2022/03/06 03:02:17;;;;;;;17.57;9.80;;;;;;;;;;5053974;28;20546;-63
2022/03/06 03:04:43;;;;;;;17.63;9.63;;;;;;;;;;5054057;28;20558;-61
2022/03/06 03:07:09;;;;;;;16.43;9.43;;;;;;;;;;5054159;28;20414;-61
2022/03/06 03:09:35;;;;;;;18.43;10.33;;;;;;;;;;5054069;28;20423;-59
2022/03/06 03:12:02;;;;;;;15.30;8.65;;;;;;;;;;5054044;28;20409;-59
2022/03/06 03:14:31;;;;;;;22.60;9.83;;;;;;;;;;5053952;28;20209;-59
2022/03/06 03:16:58;;;;;;;19.80;9.97;;;;;;;;;;5053992;28;20854;-61
2022/03/06 03:19:24;;;;;;;16.23;8.80;;;;;;;;;;5052736;28;20428;-61
2022/03/06 03:21:50;;;;;;;17.23;10.03;;;;;;;;;;5053921;28;20768;-59
2022/03/06 03:24:16;;;;;;;16.33;8.90;;;;;;;;;;5053349;28;20481;-68
2022/03/06 03:26:42;;;;;;;17.70;8.70;;;;;;;;;;5053743;28;20420;-72
2022/03/06 03:29:08;;;;;;;16.53;9.50;;;;;;;;;;5053742;28;20534;-70
2022/03/06 03:31:34;;;;;;;17.03;9.27;;;;;;;;;;5053700;28;20429;-73
2022/03/06 03:34:00;;;;;;;16.50;9.40;;;;;;;;;;5053687;28;20451;-73
2022/03/06 03:36:26;;;;;;;17.80;9.27;;;;;;;;;;5053714;28;20406;-72
2022/03/06 03:38:52;;;;;;;18.20;9.23;;;;;;;;;;5053598;28;20488;-74
2022/03/06 03:41:18;;;;;;;17.00;8.83;;;;;;;;;;5053504;28;20516;-73
2022/03/06 03:43:44;;;;;;;15.60;9.43;;;;;;;;;;5053233;28;20873;-73
2022/03/06 03:46:10;;;;;;;20.40;9.97;;;;;;;;;;5053441;28;20406;-73
2022/03/06 03:48:36;;;;;;;15.57;8.63;;;;;;;;;;5053494;28;20396;-66
2022/03/06 03:51:04;;;;;;;15.87;9.17;;;;;;;;;;5053361;28;20400;-63
2022/03/06 03:53:30;;;;;;;18.43;9.17;;;;;;;;;;5053375;28;20886;-71
2022/03/06 03:55:56;;;;;;;17.20;8.80;;;;;;;;;;5053245;28;20537;-71
2022/03/06 03:58:22;;;;;;;19.07;9.17;;;;;;;;;;5053353;28;20485;-74
2022/03/06 04:00:57;;;;;;;17.53;8.87;;;;;;;;;;5053236;28;20495;-74
2022/03/06 04:03:23;;;;;;;17.40;10.03;;;;;;;;;;5052953;28;20487;-67
2022/03/06 04:05:49;;;;;;;16.90;9.20;;;;;;;;;;5053322;28;20405;-69
2022/03/06 04:08:15;;;;;;;21.30;9.60;;;;;;;;;;5053189;28;20447;-61
2022/03/06 04:10:41;;;;;;;16.07;8.97;;;;;;;;;;5052688;28;20409;-73
2022/03/06 04:13:07;;;;;;;14.23;9.37;;;;;;;;;;5053124;28;20417;-75
2022/03/06 04:15:33;;;;;;;19.33;9.77;;;;;;;;;;5052993;28;20501;-62
2022/03/06 04:17:59;;;;;;;18.40;10.20;;;;;;;;;;5053122;28;20414;-62
2022/03/06 04:20:26;;;;;;;20.70;11.50;;;;;;;;;;5053048;28;20422;-62
2022/03/06 04:22:52;;;;;;;15.55;9.23;;;;;;;;;;5052867;28;20463;-74
2022/03/06 04:25:18;;;;;;;15.47;9.40;;;;;;;;;;5052813;28;20243;-74
2022/03/06 04:27:44;;;;;;;18.27;9.50;;;;;;;;;;5053069;28;20399;-74
2022/03/06 04:30:10;;;;;;;18.73;10.10;;;;;;;;;;5051660;28;20423;-74
2022/03/06 04:32:37;;;;;;;15.50;8.63;;;;;;;;;;5052924;28;20412;-74
2022/03/06 04:35:04;;;;;;;14.70;9.07;;;;;;;;;;5052913;28;20409;-73
2022/03/06 04:37:30;;;;;;;16.03;9.13;;;;;;;;;;5053006;28;20400;-74
2022/03/06 04:39:56;;;;;;;17.60;9.77;;;;;;;;;;5052870;28;20447;-74
2022/03/06 04:42:22;;;;;;;18.07;10.20;;;;;;;;;;5052929;28;21008;-74
2022/03/06 04:44:48;;;;;;;17.53;9.60;;;;;;;;;;5052695;28;20460;-73
2022/03/06 04:47:14;;;;;;;17.93;9.30;;;;;;;;;;5053008;28;20410;-74
2022/03/06 04:49:40;;;;;;;17.10;8.97;;;;;;;;;;5052917;28;20418;-74
2022/03/06 04:52:06;;;;;;;22.07;9.93;;;;;;;;;;5051407;28;20850;-74
2022/03/06 04:54:32;;;;;;;17.07;8.90;;;;;;;;;;5052676;28;20429;-74
2022/03/06 04:57:00;;;;;;;15.70;8.80;;;;;;;;;;5052678;28;20407;-73
2022/03/06 04:59:26;;;;;;;19.70;9.50;;;;;;;;;;5052847;28;20191;-71
2022/03/06 05:01:53;;;;;;;18.07;9.47;;;;;;;;;;5052438;28;20467;-60
2022/03/06 05:04:19;;;;;;;16.00;9.37;;;;;;;;;;5052432;28;20525;-62
2022/03/06 05:06:45;;;;;;;15.93;8.97;;;;;;;;;;5052733;28;20404;-62
2022/03/06 05:09:11;;;;;;;18.33;8.93;;;;;;;;;;5052562;28;20764;-70
2022/03/06 05:11:37;;;;;;;17.87;9.90;;;;;;;;;;5052566;28;20413;-61
2022/03/06 05:14:03;;;;;;;18.73;9.80;;;;;;;;;;5052599;28;20406;-64
2022/03/06 05:16:29;;;;;;;21.67;10.13;;;;;;;;;;5052607;28;20557;-60
2022/03/06 05:18:56;;;;;;;18.90;10.23;;;;;;;;;;5052683;28;20515;-70
2022/03/06 05:21:22;;;;;;;19.03;9.63;;;;;;;;;;5052471;28;20809;-67
2022/03/06 05:23:48;;;;;;;16.13;9.70;;;;;;;;;;5055519;28;20568;-62
2022/03/06 05:26:14;;;;;;;17.63;8.37;;;;;;;;;;5056213;28;20431;-62
2022/03/06 05:28:41;;;;;;;19.50;9.40;;;;;;;;;;5055970;28;20420;-63
2022/03/06 05:31:07;;;;;;;12.93;7.70;;;;;;;;;;5055954;28;20405;-60
2022/03/06 05:33:33;;;;;;;16.50;8.40;;;;;;;;;;5055853;28;20415;-63
2022/03/06 05:35:59;;;;;;;19.43;9.37;;;;;;;;;;5055823;28;20180;-61
2022/03/06 05:38:25;;;;;;;19.10;9.50;;;;;;;;;;5055920;28;20418;-62
2022/03/06 05:40:51;;;;;;;15.97;8.87;;;;;;;;;;5055882;28;20872;-64
2022/03/06 05:43:17;;;;;;;20.87;10.57;;;;;;;;;;5055673;28;20473;-63
2022/03/06 05:45:45;;;;;;;17.10;9.37;;;;;;;;;;5055652;28;20403;-60
2022/03/06 05:48:11;;;;;;;15.37;8.60;;;;;;;;;;5055615;28;20414;-67
2022/03/06 05:50:37;;;;;;;15.07;9.57;;;;;;;;;;5055661;28;20480;-63
2022/03/06 05:53:03;;;;;;;17.17;9.20;;;;;;;;;;5055515;28;20827;-67
2022/03/06 05:55:30;;;;;;;20.20;10.80;;;;;;;;;;5055441;28;20437;-60
2022/03/06 05:57:56;;;;;;;18.43;9.40;;;;;;;;;;5055559;28;20401;-61
2022/03/06 06:00:22;;;;;;;18.43;9.10;;;;;;;;;;5055464;28;20405;-60
2022/03/06 06:02:49;;;;;;;16.70;8.77;;;;;;;;;;5055089;28;20495;-60
2022/03/06 06:05:15;;;;;;;15.00;9.27;;;;;;;;;;5055338;28;20471;-60
2022/03/06 06:07:41;;;;;;;16.70;8.50;;;;;;;;;;5055290;28;20860;-59
2022/03/06 06:10:08;;;;;;;18.23;10.30;;;;;;;;;;5055489;28;20455;-60
2022/03/06 06:12:34;;;;;;;19.50;9.97;;;;;;;;;;5055326;28;20882;-72
2022/03/06 06:15:00;;;;;;;16.13;9.53;;;;;;;;;;5055163;28;20402;-70
2022/03/06 06:17:26;;;;;;;18.67;9.93;;;;;;;;;;5055042;28;20907;-73
2022/03/06 06:19:52;;;;;;;21.23;10.37;;;;;;;;;;5055206;28;20426;-69
2022/03/06 06:22:18;;;;;;;20.00;10.07;;;;;;;;;;5055001;28;20447;-72
2022/03/06 06:24:44;;;;;;;18.50;9.00;;;;;;;;;;5054756;28;20482;-72
2022/03/06 06:27:10;;;;;;;18.90;10.07;;;;;;;;;;5055051;28;20429;-73
2022/03/06 06:29:37;;;;;;;16.90;9.80;;;;;;;;;;5054905;28;20535;-62
2022/03/06 06:32:03;;;;;;;16.80;9.17;;;;;;;;;;5054855;28;20411;-61
2022/03/06 06:34:29;;;;;;;16.63;10.10;;;;;;;;;;5054425;28;20428;-71
2022/03/06 06:36:57;;;;;;;18.23;10.07;;;;;;;;;;5054626;28;20435;-70
2022/03/06 06:39:25;;;;;;;17.60;10.43;;;;;;;;;;5054803;28;20405;-73
2022/03/06 06:41:51;;;;;;;19.43;10.03;;;;;;;;;;5054713;28;20415;-74
2022/03/06 06:44:17;;;;;;;20.67;10.70;;;;;;;;;;5054349;28;20479;-74
2022/03/06 06:46:43;;;;;;;18.20;10.87;;;;;;;;;;5054526;28;20445;-74
2022/03/06 06:49:10;;;;;;;18.10;9.77;;;;;;;;;;5054474;28;20411;-74
2022/03/06 06:51:38;;;;;;;19.37;10.67;;;;;;;;;;5054484;28;20460;-73
2022/03/06 06:54:04;;;;;;;19.37;12.10;;;;;;;;;;5054177;28;20442;-64
2022/03/06 06:56:30;;;;;;;20.10;10.80;;;;;;;;;;5054221;28;20415;-65
2022/03/06 06:58:56;;;;;;;18.20;10.80;;;;;;;;;;5052980;28;20414;-64
2022/03/06 07:01:22;;;;;;;19.13;9.50;;;;;;;;;;5054229;28;20399;-60
2022/03/06 07:03:48;;;;;;;21.43;11.00;;;;;;;;;;5052517;28;20942;-72
2022/03/06 07:06:15;;;;;;;20.33;10.70;;;;;;;;;;5054163;28;20887;-62
2022/03/06 07:08:41;;;;;;;18.80;9.93;;;;;;;;;;5054157;28;20468;-75
2022/03/06 07:11:07;;;;;;;21.93;10.47;;;;;;;;;;5054028;28;20407;-75
2022/03/06 07:13:33;;;;;;;19.83;10.67;;;;;;;;;;5053895;28;20464;-71
2022/03/06 07:15:59;;;;;;;20.37;11.70;;;;;;;;;;5054032;28;20416;-74
2022/03/06 07:18:25;;;;;;;20.27;10.70;;;;;;;;;;5053829;28;20772;-71
2022/03/06 07:20:51;;;;;;;23.00;11.33;;;;;;;;;;5053983;28;20492;-74
2022/03/06 07:23:17;;;;;;;19.95;10.75;;;;;;;;;;5053611;28;20464;-69
2022/03/06 07:25:43;;;;;;;19.30;10.43;;;;;;;;;;5053716;28;20690;-63
2022/03/06 07:28:09;;;;;;;18.50;11.35;;;;;;;;;;5053831;28;20826;-60
2022/03/06 07:30:35;;;;;;;19.57;10.47;;;;;;;;;;5053653;28;20623;-61
2022/03/06 07:33:01;;;;;;;21.33;11.87;;;;;;;;;;5053554;28;20466;-74
2022/03/06 07:35:28;;;;;;;20.35;11.00;;;;;;;;;;5053647;28;20405;-74
2022/03/06 07:37:54;;;;;;;20.40;10.73;;;;;;;;;;5053629;28;20194;-75
2022/03/06 07:40:21;;;;;;;21.37;11.87;;;;;;;;;;5053645;28;20399;-74
2022/03/06 07:42:48;;;;;;;18.25;10.55;;;;;;;;;;5053419;28;20386;-63
2022/03/06 07:45:14;;;;;;;19.73;10.17;;;;;;;;;;5051657;28;20582;-74
2022/03/06 07:47:40;;;;;;;17.00;10.45;;;;;;;;;;5053534;28;20439;-67
2022/03/06 07:50:07;;;;;;;20.67;10.82;;;;;;;;;;5053547;28;20254;-76
2022/03/06 07:52:34;;;;;;;22.45;10.63;;;;;;;;;;5053440;28;20266;-75
2022/03/06 07:55:00;;;;;;;20.20;10.60;;;;;;;;;;5053199;28;20673;-62
2022/03/06 07:57:26;;;;;;;19.38;11.05;;;;;;;;;;5053467;28;20449;-68
2022/03/06 07:59:52;;;;;;;21.83;10.50;;;;;;;;;;5053425;28;20675;-61
2022/03/06 08:02:18;;;;;;;19.50;10.63;;;;;;;;;;5052970;28;20451;-61
2022/03/06 08:04:45;;;;;;;18.45;10.93;;;;;;;;;;5052965;28;20488;-60
2022/03/06 08:07:11;;;;;;;20.30;11.43;;;;;;;;;;5053345;28;20187;-60
2022/03/06 08:09:37;;;;;;;19.60;10.00;;;;;;;;;;5053339;28;20176;-77
2022/03/06 08:12:03;;;;;;;20.83;11.57;;;;;;;;;;5053201;28;20409;-75
2022/03/06 08:14:29;;;;;;;19.97;11.27;;;;;;;;;;5052989;28;20533;-75
2022/03/06 08:16:56;;;;;;;22.33;11.67;;;;;;;;;;5051877;28;20492;-75
2022/03/06 08:19:22;;;;;;;18.83;11.33;;;;;;;;;;5053108;28;20497;-74
2022/03/06 08:21:48;;;;;;;17.57;10.57;;;;;;;;;;5053072;28;20435;-75
2022/03/06 08:24:14;;;;;;;25.73;11.73;;;;;;;;;;5052681;28;20466;-75
2022/03/06 08:26:41;;;;;;;22.80;11.57;;;;;;;;;;5053077;28;20784;-70
2022/03/06 08:29:07;;;;;;;20.27;11.48;;;;;;;;;;5053106;28;20201;-75
2022/03/06 08:31:33;;;;;;;19.50;11.47;;;;;;;;;;5052984;28;20228;-74
2022/03/06 08:33:59;;;;;;;19.40;10.73;;;;;;;;;;5052944;28;20976;-74
2022/03/06 08:36:25;;;;;;;22.13;11.63;;;;;;;;;;5052922;28;20928;-77
2022/03/06 08:38:51;;;;;;;19.80;10.47;;;;;;;;;;5051657;28;20408;-74
2022/03/06 08:41:17;;;;;;;19.07;10.70;;;;;;;;;;5052884;28;20779;-76
2022/03/06 08:43:43;;;;;;;20.53;10.63;;;;;;;;;;5052781;28;20537;-77
2022/03/06 08:46:09;;;;;;;24.57;12.17;;;;;;;;;;5053213;28;21045;-77
2022/03/06 08:48:38;;;;;;;19.67;10.50;;;;;;;;;;5053176;28;20422;-74
2022/03/06 08:51:05;;;;;;;21.90;11.50;;;;;;;;;;5052959;28;20419;-76
2022/03/06 08:53:32;;;;;;;19.20;11.30;;;;;;;;;;5052775;28;20514;-72
2022/03/06 08:55:58;;;;;;;19.13;10.03;;;;;;;;;;5053386;28;20406;-73
2022/03/06 08:58:24;;;;;;;19.17;10.17;;;;;;;;;;5055549;28;20420;-60
2022/03/06 09:00:50;;;;;;;19.73;10.17;;;;;;;;;;5056776;28;20770;-64
2022/03/06 09:03:16;;;;;;;20.53;10.93;;;;;;;;;;5056254;28;20478;-60
2022/03/06 09:05:42;;;;;;;24.73;11.67;;;;;;;;;;5056717;28;20443;-61
2022/03/06 09:08:09;;;;;;;19.23;11.20;;;;;;;;;;5056512;28;20451;-64
2022/03/06 09:10:36;;;;;;;18.93;9.63;;;;;;;;;;5056416;28;20999;-63
2022/03/06 09:13:02;;;;;;;20.83;10.70;;;;;;;;;;5056323;28;20415;-60
2022/03/06 09:15:28;;;;;;;18.27;10.07;;;;;;;;;;5056374;28;20433;-63
2022/03/06 09:17:54;;;;;;;15.03;10.37;;;;;;;;;;5056300;28;20419;-61
2022/03/06 09:20:20;;;;;;;17.33;10.30;;;;;;;;;;5056167;28;20411;-67
2022/03/06 09:22:46;;;;;;;13.83;8.17;;;;;;;;;;5055970;28;20477;-66
2022/03/06 09:25:12;;;;;;;23.40;11.07;;;;;;;;;;5056114;28;20434;-61
2022/03/06 09:27:39;;;;;;;21.73;11.00;;;;;;;;;;5056014;28;20398;-60
2022/03/06 09:30:06;;;;;;;24.27;11.60;;;;;;;;;;5056098;28;20449;-63
2022/03/06 09:32:32;;;;;;;18.13;9.83;;;;;;;;;;5054635;28;20502;-61
2022/03/06 09:34:58;;;;;;;18.03;9.70;;;;;;;;;;5054685;28;20414;-61
2022/03/06 09:37:24;;;;;;;16.60;9.30;;;;;;;;;;5055805;28;20955;-65
2022/03/06 09:39:50;;;;;;;17.30;9.90;;;;;;;;;;5055947;28;20411;-65
2022/03/06 09:42:17;;;;;;;15.17;10.03;;;;;;;;;;5055892;28;20404;-66
2022/03/06 09:44:45;;;;;;;20.63;9.90;;;;;;;;;;5055576;28;20499;-61
2022/03/06 09:47:12;;;;;;;18.43;9.47;;;;;;;;;;5055899;28;20426;-59
2022/03/06 09:49:38;;;;;;;14.70;9.43;;;;;;;;;;5055681;28;20511;-64
2022/03/06 09:52:04;;;;;;;16.90;9.10;;;;;;;;;;5055613;28;20969;-66
2022/03/06 09:54:31;;;;;;;18.30;9.80;;;;;;;;;;5055639;28;20422;-60
2022/03/06 09:56:58;;;;;;;22.23;9.80;;;;;;;;;;5055827;28;20797;-72
2022/03/06 09:59:24;;;;;;;16.97;8.80;;;;;;;;;;5054583;28;20948;-62
2022/03/06 10:01:50;;;;;;;20.13;9.80;;;;;;;;;;5054176;28;20500;-61
2022/03/06 10:07:19;;;;;;;18.20;10.20;;;;;;;;;;5055548;28;20412;-62
2022/03/06 10:09:54;;;;;;;21.00;10.13;;;;;;;;;;5053713;28;20423;-71
2022/03/06 10:12:21;;;;;;;16.33;10.10;;;;;;;;;;5055251;28;20414;-61
2022/03/06 10:14:50;;;;;;;16.40;10.07;;;;;;;;;;5055138;28;20425;-69
2022/03/06 10:17:20;;;;;;;20.27;10.37;;;;;;;;;;5053859;28;20438;-67
2022/03/06 10:20:05;;;;;;;12.70;7.10;;;;;;;;;;5055210;28;20563;-61
2022/03/06 10:22:33;;;;;;;19.80;9.70;;;;;;;;;;5055175;28;20437;-74
2022/03/06 10:24:59;;;;;;;16.87;10.17;;;;;;;;;;5053659;28;20585;-65
2022/03/06 10:27:45;;;;;;;18.77;10.47;;;;;;;;;;5055183;28;20490;-66
2022/03/06 10:30:30;;;;;;;17.10;9.50;;;;;;;;;;5053677;28;20419;-74
2022/03/06 10:32:57;;;;;;;16.63;9.17;;;;;;;;;;5054830;28;20414;-77
2022/03/06 10:35:33;;;;;;;18.70;9.10;;;;;;;;;;5054963;28;20974;-68
2022/03/06 10:37:59;;;;;;;16.43;8.60;;;;;;;;;;5054894;28;20413;-66
2022/03/06 10:40:35;;;;;;;19.30;10.77;;;;;;;;;;5055138;28;20399;-61
2022/03/06 10:43:01;;;;;;;16.47;9.00;;;;;;;;;;5054606;28;20447;-62
2022/03/06 10:45:27;;;;;;;16.10;9.77;;;;;;;;;;5053650;28;20423;-76
2022/03/06 10:47:56;;;;;;;17.17;8.10;;;;;;;;;;5054799;28;20920;-73
2022/03/06 10:50:23;;;;;;;18.10;10.47;;;;;;;;;;5053674;28;20427;-75
2022/03/06 10:52:53;;;;;;;14.50;8.73;;;;;;;;;;5054619;28;20423;-71
2022/03/06 10:55:31;;;;;;;19.43;9.80;;;;;;;;;;5054535;28;20437;-69
2022/03/06 10:57:57;;;;;;;19.00;10.77;;;;;;;;;;5054425;28;20431;-70
2022/03/06 11:00:24;;;;;;;18.37;10.90;;;;;;;;;;5054397;28;20422;-67
2022/03/06 11:02:50;;;;;;;14.93;9.00;;;;;;;;;;5053291;28;20984;-66
2022/03/06 11:05:16;;;;;;;16.43;9.40;;;;;;;;;;5053299;28;20444;-71
2022/03/06 11:07:42;;;;;;;18.60;10.23;;;;;;;;;;5054394;28;20888;-75
2022/03/06 11:10:09;;;;;;;15.60;8.73;;;;;;;;;;5053018;28;20410;-74
2022/03/06 11:12:36;;;;;;;16.10;9.07;;;;;;;;;;5054007;28;20407;-70
2022/03/06 11:15:03;;;;;;;16.50;9.50;;;;;;;;;;5054035;28;20910;-70
2022/03/06 11:17:32;;;;;;;18.43;9.90;;;;;;;;;;5052810;28;20418;-71
2022/03/06 11:19:58;;;;;;;16.17;8.80;;;;;;;;;;5053217;28;20406;-74
2022/03/06 11:22:44;;;;;;;14.80;8.60;;;;;;;;;;5054076;28;20418;-71
2022/03/06 11:25:12;;;;;;;14.80;8.50;;;;;;;;;;5053857;28;20863;-70
2022/03/06 11:27:44;;;;;;;15.03;9.10;;;;;;;;;;5053948;28;20883;-62
2022/03/06 11:30:20;;;;;;;15.27;7.80;;;;;;;;;;5052703;28;21047;-73
2022/03/06 11:32:47;;;;;;;14.70;8.40;;;;;;;;;;5052543;28;20428;-76
2022/03/06 11:35:18;;;;;;;15.90;9.80;;;;;;;;;;5053822;28;20767;-76
2022/03/06 11:37:57;;;;;;;15.57;8.83;;;;;;;;;;5053774;28;20410;-65
2022/03/06 11:40:44;;;;;;;15.13;8.87;;;;;;;;;;5053682;28;20778;-64
2022/03/06 11:43:11;;;;;;;15.60;9.33;;;;;;;;;;5052301;28;20516;-64
2022/03/06 11:45:47;;;;;;;13.90;8.57;;;;;;;;;;5053566;28;20419;-71
2022/03/06 11:48:23;;;;;;;15.40;8.60;;;;;;;;;;5053605;28;20409;-64
2022/03/06 11:51:10;;;;;;;17.10;9.83;;;;;;;;;;5052193;28;20450;-61
2022/03/06 11:53:55;;;;;;;17.03;9.90;;;;;;;;;;5053108;28;20443;-67
2022/03/06 11:56:34;;;;;;;13.60;9.03;;;;;;;;;;5053730;28;20415;-72
2022/03/06 11:59:00;;;;;;;15.17;8.80;;;;;;;;;;5053733;28;20422;-73
2022/03/06 12:01:30;;;;;;;15.00;8.87;;;;;;;;;;5053651;28;20405;-73
2022/03/06 12:04:01;;;;;;;14.03;8.40;;;;;;;;;;5051193;28;20490;-71
2022/03/06 12:06:27;;;;;;;15.60;9.07;;;;;;;;;;5053494;28;20991;-64
2022/03/06 12:08:54;;;;;;;14.90;9.00;;;;;;;;;;5053448;28;20964;-69
2022/03/06 12:11:21;;;;;;;14.63;8.70;;;;;;;;;;5053374;28;20419;-77
2022/03/06 12:13:50;;;;;;;11.50;7.80;;;;;;;;;;5053138;28;20478;-76
2022/03/06 12:16:16;;;;;;;13.43;8.77;;;;;;;;;;5053278;28;20459;-73
2022/03/06 12:19:01;;;;;;;19.27;8.60;;;;;;;;;;5053310;28;20541;-65
2022/03/06 12:21:36;;;;;;;13.73;8.80;;;;;;;;;;5051947;28;20417;-76
2022/03/06 12:24:12;;;;;;;13.00;7.60;;;;;;;;;;5052834;28;20516;-70
2022/03/06 12:26:45;;;;;;;17.20;9.20;;;;;;;;;;5053199;28;20421;-70
2022/03/06 12:29:31;;;;;;;10.70;8.10;;;;;;;;;;5053150;28;20490;-66
2022/03/06 12:31:57;;;;;;;13.37;8.97;;;;;;;;;;5055255;28;20431;-67
2022/03/06 12:34:49;;;;;;;15.23;9.43;;;;;;;;;;5057112;28;20452;-66
2022/03/06 12:37:22;;;;;;;13.90;7.27;;;;;;;;;;5056834;28;20493;-74
2022/03/06 12:39:48;;;;;;;14.43;8.20;;;;;;;;;;5056978;28;20399;-71
2022/03/06 12:42:14;;;;;;;13.90;8.77;;;;;;;;;;5057095;28;20966;-64
2022/03/06 12:44:46;;;;;;;14.30;8.13;;;;;;;;;;5056724;28;20478;-66
2022/03/06 12:47:12;;;;;;;11.20;7.97;;;;;;;;;;5056970;28;20433;-71
2022/03/06 12:49:38;;;;;;;12.80;8.40;;;;;;;;;;5057086;28;20415;-62
2022/03/06 12:52:04;;;;;;;17.50;8.73;;;;;;;;;;5057302;28;20430;-65
2022/03/06 12:54:33;;;;;;;12.40;8.33;;;;;;;;;;5056759;28;20458;-73
2022/03/06 12:57:00;;;;;;;16.03;8.23;;;;;;;;;;5056687;28;20485;-71
2022/03/06 12:59:26;;;;;;;10.80;8.30;;;;;;;;;;5056670;28;20433;-73
2022/03/06 13:01:52;;;;;;;12.07;7.60;;;;;;;;;;5055525;28;20413;-77
2022/03/06 13:04:21;;;;;;;12.63;8.03;;;;;;;;;;5055015;28;20485;-71
2022/03/06 13:06:47;;;;;;;9.80;6.70;;;;;;;;;;5055276;28;20428;-76
2022/03/06 13:09:20;;;;;;;15.37;7.60;;;;;;;;;;5056559;28;20458;-77
2022/03/06 13:11:50;;;;;;;11.33;7.70;;;;;;;;;;5055155;28;20759;-78
2022/03/06 13:14:16;;;;;;;15.77;8.17;;;;;;;;;;5056372;28;20426;-72
2022/03/06 13:16:42;;;;;;;11.17;6.97;;;;;;;;;;5056287;28;20937;-73
2022/03/06 13:19:09;;;;;;;13.23;8.10;;;;;;;;;;5056344;28;20460;-75
2022/03/06 13:21:37;;;;;;;15.43;7.67;;;;;;;;;;5056464;28;20409;-76
2022/03/06 13:24:05;;;;;;;16.00;8.80;;;;;;;;;;5055907;28;20481;-73
2022/03/06 13:26:32;;;;;;;17.70;9.53;;;;;;;;;;5056041;28;20423;-72
2022/03/06 13:28:59;;;;;;;12.70;8.50;;;;;;;;;;5056249;28;20411;-75
2022/03/06 13:31:25;;;;;;;13.33;8.20;;;;;;;;;;5056183;28;20459;-78
2022/03/06 13:34:07;;;;;;;13.80;8.40;;;;;;;;;;5056120;28;20406;-76
2022/03/06 13:36:35;;;;;;;14.00;8.57;;;;;;;;;;5055917;28;20890;-77
2022/03/06 13:39:01;;;;;;;12.97;7.30;;;;;;;;;;5055879;28;20438;-66
2022/03/06 13:41:27;;;;;;;10.20;7.27;;;;;;;;;;5055823;28;20403;-66
2022/03/06 13:43:54;;;;;;;9.90;6.70;;;;;;;;;;5054588;28;20507;-64
2022/03/06 13:46:20;;;;;;;15.20;7.97;;;;;;;;;;5056136;28;20541;-64
2022/03/06 13:48:47;;;;;;;12.67;7.40;;;;;;;;;;5056946;28;20575;-75
2022/03/06 13:51:20;;;;;;;12.20;7.60;;;;;;;;;;5056011;28;20471;-77
2022/03/06 13:53:57;;;;;;;9.87;7.07;;;;;;;;;;5054275;28;20446;-77
2022/03/06 13:56:36;;;;;;;14.07;8.60;;;;;;;;;;5055710;28;20987;-80
2022/03/06 13:59:04;;;;;;;14.53;8.57;;;;;;;;;;5055754;28;20502;-76
2022/03/06 14:01:30;;;;;;;16.10;8.27;;;;;;;;;;5055666;28;20469;-76
2022/03/06 14:04:00;;;;;;;12.90;7.47;;;;;;;;;;5054796;28;20484;-78
2022/03/06 14:06:33;;;;;;;12.70;8.10;;;;;;;;;;5055746;28;20408;-79
2022/03/06 14:08:59;;;;;;;14.10;7.77;;;;;;;;;;5055746;28;20430;-77
2022/03/06 14:11:26;;;;;;;14.87;9.47;;;;;;;;;;5055629;28;20465;-65
2022/03/06 14:13:54;;;;;;;17.00;8.83;;;;;;;;;;5055320;28;20449;-66
2022/03/06 14:16:20;;;;;;;14.93;8.80;;;;;;;;;;5055392;28;20399;-68
2022/03/06 14:18:49;;;;;;;13.30;7.60;;;;;;;;;;5055369;28;20411;-65
2022/03/06 14:21:19;;;;;;;13.20;8.53;;;;;;;;;;5055140;28;20407;-66
2022/03/06 14:23:49;;;;;;;15.97;9.13;;;;;;;;;;5054804;28;20486;-64
2022/03/06 14:26:18;;;;;;;14.80;8.90;;;;;;;;;;5055010;28;20415;-68
2022/03/06 14:29:00;;;;;;;12.93;9.10;;;;;;;;;;5055070;28;20903;-66
2022/03/06 14:31:27;;;;;;;13.00;8.80;;;;;;;;;;5055113;28;20419;-64